< < Back
Terminal Aerodrome Forecast


Current Version              Previous Versions:   1  2  3  4  5  6  7  8  9  

Terminal Aerodrome Forecast

371
FTUS42 KGSP 280529
TAFCLT
TAF
KCLT 280529Z 2806/2906 13006KT P6SM SCT060 BKN100
     FM280800 15004KT P6SM BKN045
      TEMPO 2812/2815 SCT015 BKN030
     FM281500 17003KT P6SM BKN030
     FM281700 17004KT P6SM BKN040 PROB30 2819/2823 4SM TSRA BKN030CB
     FM290100 14005KT P6SM BKN080=

Latest METAR

054
SAUS70 KWBC 281300 RRE
MTRCLT
METAR KCLT 281252Z 16005KT 10SM OVC013 26/22 A3005 RMK AO2 SLP165
T02610222


USA.gov is the U.S. government's official web portal to all federal, state and local government web resources and services.